Time;durP1;ratioP1;P1;durP2;ratioP2;P2;SDS_P1;SDS_P2;PMS_P1;PMS_P2;Temp;Humidity;BMP_temperature;BMP_pressure;BME280_temperature;BME280_humidity;BME280_pressure;Samples;Min_cycle;Max_cycle;Signal;HPM_P1;HPM_P2
2022/02/27 00:02:19;;;;;;;8.13;4.47;;;;;;;0.91;80.43;98014.84;5069999;28;20177;-62
2022/02/27 00:04:46;;;;;;;11.77;4.47;;;;;;;0.99;79.97;98013.22;5071217;28;20184;-62
2022/02/27 00:07:11;;;;;;;5.63;3.67;;;;;;;0.98;80.22;98021.09;5071415;28;20204;-62
2022/02/27 00:09:37;;;;;;;7.87;3.00;;;;;;;1.09;80.03;98015.78;5073500;28;20591;-62
2022/02/27 00:12:02;;;;;;;7.20;2.60;;;;;;;1.00;80.26;98017.44;5075368;28;20532;-62
2022/02/27 00:14:28;;;;;;;8.43;3.80;;;;;;;0.99;80.50;98017.56;5074165;28;20185;-63
2022/02/27 00:16:53;;;;;;;10.43;5.10;;;;;;;0.94;80.67;98019.75;5074511;28;20556;-62
2022/02/27 00:19:21;;;;;;;14.73;3.30;;;;;;;0.75;81.07;98029.09;5074817;28;20221;-62
2022/02/27 00:21:47;;;;;;;7.07;3.03;;;;;;;0.87;81.25;98027.22;5074777;28;20178;-62
2022/02/27 00:24:12;;;;;;;12.50;3.53;;;;;;;0.72;81.63;98028.56;5074552;28;20177;-62
2022/02/27 00:26:38;;;;;;;11.20;2.93;;;;;;;0.69;81.53;98023.66;5074979;28;20186;-62
2022/02/27 00:29:04;;;;;;;10.43;2.77;;;;;;;0.62;81.76;98018.22;5074566;28;20264;-64
2022/02/27 00:31:29;;;;;;;6.83;2.83;;;;;;;0.63;81.84;98025.00;5074532;28;20263;-62
2022/02/27 00:33:55;;;;;;;6.70;3.33;;;;;;;0.71;82.45;98024.34;5074633;28;20177;-62
2022/02/27 00:36:20;;;;;;;4.53;3.20;;;;;;;0.58;82.43;98022.00;5074182;28;20717;-62
2022/02/27 00:38:45;;;;;;;8.77;3.27;;;;;;;0.63;82.69;98025.00;5073364;28;20672;-62
2022/02/27 00:41:11;;;;;;;9.80;2.90;;;;;;;0.74;81.89;98021.47;5073396;28;20220;-62
2022/02/27 00:43:36;;;;;;;6.50;3.00;;;;;;;0.71;82.41;98019.19;5074633;28;20181;-62
2022/02/27 00:46:06;;;;;;;5.27;2.80;;;;;;;0.62;82.32;98020.78;5074351;28;20182;-62
2022/02/27 00:48:32;;;;;;;7.47;2.23;;;;;;;0.58;82.95;98026.34;5073308;28;20301;-62
2022/02/27 00:50:57;;;;;;;6.17;2.90;;;;;;;0.61;82.71;98021.75;5072747;28;20193;-63
2022/02/27 00:53:22;;;;;;;6.20;3.20;;;;;;;0.52;83.12;98027.69;5074140;28;20169;-63
2022/02/27 00:55:48;;;;;;;3.43;2.47;;;;;;;0.50;83.37;98031.38;5073449;28;20271;-62
2022/02/27 00:58:13;;;;;;;4.30;2.70;;;;;;;0.55;83.36;98018.91;5073528;28;20497;-62
2022/02/27 01:00:38;;;;;;;7.67;2.60;;;;;;;0.61;82.71;98029.50;5072504;28;20177;-62
2022/02/27 01:03:04;;;;;;;7.90;2.10;;;;;;;0.57;83.16;98020.38;5074075;28;20231;-62
2022/02/27 01:05:29;;;;;;;11.90;2.77;;;;;;;0.66;83.12;98016.19;5073946;28;20192;-62
2022/02/27 01:07:56;;;;;;;4.93;2.50;;;;;;;0.60;83.06;98021.88;5073827;28;20303;-62
2022/02/27 01:10:21;;;;;;;6.53;3.00;;;;;;;0.60;83.25;98014.16;5074490;28;20627;-62
2022/02/27 01:12:46;;;;;;;5.07;2.43;;;;;;;0.55;83.37;98017.13;5073179;28;20199;-62
2022/02/27 01:15:12;;;;;;;12.10;3.10;;;;;;;0.44;83.37;98017.25;5072903;28;20607;-63
2022/02/27 01:17:37;;;;;;;6.17;2.57;;;;;;;0.51;83.48;98012.34;5072703;28;20691;-64
2022/02/27 01:20:05;;;;;;;9.43;3.13;;;;;;;0.55;83.23;98009.41;5073954;28;20201;-63
2022/02/27 01:22:30;;;;;;;8.27;2.83;;;;;;;0.53;83.84;98011.28;5073660;28;20268;-63
2022/02/27 01:24:56;;;;;;;5.87;2.57;;;;;;;0.43;83.88;98001.91;5073751;28;20264;-63
2022/02/27 01:27:21;;;;;;;4.47;2.33;;;;;;;0.45;83.87;98005.97;5074132;28;20177;-63
2022/02/27 01:29:46;;;;;;;6.00;3.03;;;;;;;0.49;83.44;98009.94;5073043;28;20715;-63
2022/02/27 01:32:12;;;;;;;6.77;3.20;;;;;;;0.39;84.04;98009.88;5073952;28;20188;-63
2022/02/27 01:34:38;;;;;;;9.47;3.87;;;;;;;0.47;83.72;97996.34;5073698;28;20185;-62
2022/02/27 01:37:03;;;;;;;5.97;4.03;;;;;;;0.54;83.38;97999.22;5073313;28;20201;-63
2022/02/27 01:39:29;;;;;;;4.33;2.90;;;;;;;0.43;83.66;97996.75;5072885;28;20177;-63
2022/02/27 01:41:54;;;;;;;9.03;2.90;;;;;;;0.39;84.14;97999.56;5073182;28;20178;-63
2022/02/27 01:44:21;;;;;;;4.83;2.50;;;;;;;0.40;83.82;97987.50;5071989;28;20223;-62
2022/02/27 01:47:01;;;;;;;10.40;3.00;;;;;;;0.41;84.02;97989.13;5073087;28;20206;-63
2022/02/27 01:49:27;;;;;;;8.23;4.03;;;;;;;0.40;83.90;97984.91;5073211;28;20571;-63
2022/02/27 01:51:53;;;;;;;7.43;2.77;;;;;;;0.40;83.55;97978.00;5073215;28;20182;-63
2022/02/27 01:54:19;;;;;;;9.47;2.60;;;;;;;0.44;84.11;97977.75;5072902;28;20268;-63
2022/02/27 01:56:45;;;;;;;8.43;3.13;;;;;;;0.34;85.04;97981.13;5072878;28;20702;-62
2022/02/27 01:59:11;;;;;;;10.90;3.23;;;;;;;0.25;84.97;97986.25;5072845;28;20204;-63
2022/02/27 02:01:36;;;;;;;7.87;3.43;;;;;;;0.29;84.82;97978.13;5073516;28;20260;-62
2022/02/27 02:04:02;;;;;;;6.13;3.10;;;;;;;0.13;85.23;97984.72;5073152;28;20284;-62
2022/02/27 02:06:27;;;;;;;7.03;2.83;;;;;;;0.22;85.40;97987.34;5073099;28;20185;-63
2022/02/27 02:08:53;;;;;;;7.30;3.03;;;;;;;0.24;85.23;97979.47;5071579;28;20691;-63
2022/02/27 02:11:18;;;;;;;7.13;2.60;;;;;;;0.18;85.30;97983.38;5072834;28;20213;-63
2022/02/27 02:13:44;;;;;;;13.10;3.10;;;;;;;0.19;85.46;97982.44;5073292;28;20181;-62
2022/02/27 02:16:09;;;;;;;6.20;2.80;;;;;;;0.24;85.11;97985.44;5072591;28;20209;-63
2022/02/27 02:18:38;;;;;;;7.57;2.90;;;;;;;0.22;85.42;97981.38;5072293;28;20566;-63
2022/02/27 02:21:04;;;;;;;8.73;2.77;;;;;;;0.21;85.69;97972.81;5072667;28;20268;-63
2022/02/27 02:23:29;;;;;;;6.43;2.90;;;;;;;0.24;85.33;97972.56;5072595;28;20235;-63
2022/02/27 02:25:54;;;;;;;7.27;3.00;;;;;;;0.21;85.46;97979.75;5072203;28;20183;-63
2022/02/27 02:28:21;;;;;;;5.60;2.70;;;;;;;0.11;86.01;97971.19;5072801;28;20618;-62
2022/02/27 02:30:46;;;;;;;4.37;2.50;;;;;;;0.18;85.51;97965.34;5072591;28;20623;-63
2022/02/27 02:33:12;;;;;;;5.20;2.83;;;;;;;0.18;85.85;97962.75;5071838;28;20181;-63
2022/02/27 02:35:38;;;;;;;6.50;2.73;;;;;;;0.16;86.12;97972.41;5071456;28;20246;-63
2022/02/27 02:38:05;;;;;;;7.90;2.70;;;;;;;0.14;86.37;97961.41;5072166;28;20672;-63
2022/02/27 02:40:30;;;;;;;7.37;3.03;;;;;;;0.11;86.14;97964.25;5072218;28;20230;-63
2022/02/27 02:42:56;;;;;;;5.03;2.63;;;;;;;0.19;85.89;97958.44;5072706;28;20568;-63
2022/02/27 02:45:21;;;;;;;6.93;3.07;;;;;;;0.13;86.08;97954.63;5072258;28;20185;-63
2022/02/27 02:47:48;;;;;;;8.93;2.80;;;;;;;0.09;86.50;97971.31;5072088;28;20177;-63
2022/02/27 02:50:15;;;;;;;8.67;2.80;;;;;;;0.10;86.55;97954.06;5072278;28;20481;-62
2022/02/27 02:52:40;;;;;;;7.37;3.20;;;;;;;0.08;86.82;97959.34;5071652;28;20650;-64
2022/02/27 02:55:13;;;;;;;3.83;3.03;;;;;;;0.06;87.21;97957.88;5071968;28;20235;-62
2022/02/27 02:57:39;;;;;;;6.30;3.20;;;;;;;0.11;86.83;97953.13;5070834;28;20197;-64
2022/02/27 03:00:08;;;;;;;5.03;2.73;;;;;;;0.11;86.15;97943.66;5072154;28;20200;-63
2022/02/27 03:02:34;;;;;;;4.83;2.97;;;;;;;-0.06;87.04;97955.38;5072360;28;20180;-62
2022/02/27 03:04:59;;;;;;;4.83;3.00;;;;;;;0.02;87.22;97946.19;5072320;28;20188;-62
2022/02/27 03:07:24;;;;;;;9.70;3.80;;;;;;;0.03;87.33;97955.53;5072560;28;20496;-62
2022/02/27 03:09:50;;;;;;;6.53;3.10;;;;;;;-0.07;87.90;97950.38;5072564;28;20579;-62
2022/02/27 03:12:15;;;;;;;9.20;3.33;;;;;;;-0.04;87.71;97950.09;5071950;28;20185;-62
2022/02/27 03:14:41;;;;;;;8.40;3.13;;;;;;;-0.05;88.14;97948.47;5072394;28;20248;-63
2022/02/27 03:17:06;;;;;;;8.90;3.10;;;;;;;-0.11;88.57;97942.06;5072025;28;20231;-62
2022/02/27 03:19:31;;;;;;;7.57;3.13;;;;;;;0.06;88.04;97934.69;5054175;28;20312;-62
2022/02/27 03:21:57;;;;;;;10.97;3.33;;;;;;;0.03;88.14;97933.16;5070643;28;20501;-63
2022/02/27 03:24:22;;;;;;;9.77;3.27;;;;;;;0.07;87.55;97936.28;5071956;28;20177;-62
2022/02/27 03:26:47;;;;;;;3.70;2.63;;;;;;;-0.09;88.31;97937.63;5071362;28;20619;-61
2022/02/27 03:29:13;;;;;;;10.10;3.40;;;;;;;-0.05;88.10;97936.41;5071617;28;20571;-61
2022/02/27 03:31:38;;;;;;;8.47;3.50;;;;;;;-0.20;88.42;97931.75;5071894;28;20181;-61
2022/02/27 03:34:04;;;;;;;10.03;3.00;;;;;;;-0.15;88.89;97935.56;5072145;28;20181;-61
2022/02/27 03:36:29;;;;;;;5.53;2.90;;;;;;;-0.02;88.56;97940.47;5071651;28;20205;-61
2022/02/27 03:38:55;;;;;;;6.80;3.53;;;;;;;-0.08;88.27;97936.69;5072086;28;20186;-61
2022/02/27 03:41:20;;;;;;;8.33;3.40;;;;;;;-0.25;88.92;97939.06;5071628;28;20230;-61
2022/02/27 03:43:46;;;;;;;9.30;3.17;;;;;;;-0.14;89.05;97936.38;5072549;28;20646;-62
2022/02/27 03:46:11;;;;;;;7.83;3.60;;;;;;;-0.13;88.69;97936.25;5075625;28;20224;-62
2022/02/27 03:48:36;;;;;;;5.57;2.97;;;;;;;-0.25;89.38;97939.88;5038048;28;20310;-62
2022/02/27 03:51:02;;;;;;;5.60;2.93;;;;;;;-0.34;90.21;97938.09;5069888;28;20234;-62
2022/02/27 03:53:28;;;;;;;5.93;3.00;;;;;;;-0.23;89.69;97945.72;5075626;28;20185;-61
2022/02/27 03:55:53;;;;;;;8.53;3.40;;;;;;;-0.33;90.12;97949.19;5075519;28;20177;-62
2022/02/27 03:58:18;;;;;;;4.83;3.03;;;;;;;-0.45;91.37;97943.34;5073833;28;20721;-63
2022/02/27 04:00:44;;;;;;;5.77;3.67;;;;;;;-0.39;91.35;97945.34;5075040;28;20181;-61
2022/02/27 04:03:10;;;;;;;8.70;3.70;;;;;;;-0.42;91.00;97938.72;5074271;28;20181;-61
2022/02/27 04:05:36;;;;;;;11.67;3.53;;;;;;;-0.46;91.74;97944.28;5075292;28;20241;-62
2022/02/27 04:08:03;;;;;;;7.30;3.23;;;;;;;-0.33;91.01;97947.41;5074662;28;20169;-62
2022/02/27 04:10:29;;;;;;;13.97;3.70;;;;;;;-0.55;91.88;97945.84;5075589;28;20245;-61
2022/02/27 04:12:55;;;;;;;5.27;2.63;;;;;;;-0.41;92.12;97944.69;5073810;28;20256;-62
2022/02/27 04:15:20;;;;;;;6.23;3.33;;;;;;;-0.30;91.34;97946.34;5075138;28;20666;-62
2022/02/27 04:17:45;;;;;;;8.30;3.83;;;;;;;-0.45;91.99;97956.22;5076403;28;20257;-62
2022/02/27 04:20:11;;;;;;;5.03;3.77;;;;;;;-0.42;91.90;97954.19;5077218;28;20241;-61
2022/02/27 04:22:36;;;;;;;10.00;3.77;;;;;;;-0.26;91.18;97948.53;5095783;28;20617;-61
2022/02/27 04:25:02;;;;;;;12.67;4.33;;;;;;;-0.34;91.60;97961.25;5095407;28;20203;-63
2022/02/27 04:27:28;;;;;;;7.57;3.57;;;;;;;-0.24;91.33;97959.53;5095305;28;20184;-62
2022/02/27 04:29:53;;;;;;;5.67;3.30;;;;;;;-0.47;91.71;97956.31;5094525;28;20640;-62
2022/02/27 04:32:19;;;;;;;7.83;3.47;;;;;;;-0.46;92.55;97952.81;5095278;28;20176;-62
2022/02/27 04:34:44;;;;;;;11.23;3.67;;;;;;;-0.48;92.65;97961.59;5095022;28;20571;-62
2022/02/27 04:37:10;;;;;;;8.30;4.10;;;;;;;-0.44;93.51;97957.81;5095050;28;20200;-62
2022/02/27 04:39:36;;;;;;;6.47;3.40;;;;;;;-0.47;93.13;97956.31;5094808;28;20172;-61
2022/02/27 04:42:01;;;;;;;10.27;4.27;;;;;;;-0.43;93.01;97956.88;5095141;28;20228;-62
2022/02/27 04:44:27;;;;;;;8.03;4.27;;;;;;;-0.33;92.77;97962.06;5094422;28;20181;-62
2022/02/27 04:46:53;;;;;;;8.13;4.00;;;;;;;-0.42;92.77;97958.50;5076978;28;20172;-62
2022/02/27 04:49:18;;;;;;;6.17;4.07;;;;;;;-0.46;93.40;97959.72;5094814;28;20206;-62
2022/02/27 04:51:43;;;;;;;9.03;4.60;;;;;;;-0.47;93.87;97958.91;5094377;28;20188;-62
2022/02/27 04:54:09;;;;;;;7.93;4.30;;;;;;;-0.51;93.82;97960.09;5075640;28;20184;-62
2022/02/27 04:56:34;;;;;;;13.77;4.23;;;;;;;-0.50;94.24;97958.31;5093251;28;20269;-63
2022/02/27 04:59:00;;;;;;;9.63;4.60;;;;;;;-0.53;94.35;97956.03;5094036;28;20176;-62
2022/02/27 05:01:25;;;;;;;7.60;4.40;;;;;;;-0.50;94.41;97958.31;5094206;28;20180;-62
2022/02/27 05:03:51;;;;;;;8.97;4.63;;;;;;;-0.51;94.28;97951.56;5094095;28;20180;-62
2022/02/27 05:06:16;;;;;;;5.47;3.93;;;;;;;-0.42;93.58;97955.94;5076292;28;20230;-62
2022/02/27 05:08:42;;;;;;;8.07;4.77;;;;;;;-0.43;93.93;97956.88;5076312;28;20180;-61
2022/02/27 05:11:07;;;;;;;6.30;4.77;;;;;;;-0.42;93.86;97955.94;5093916;28;20188;-61
2022/02/27 05:13:33;;;;;;;6.53;4.80;;;;;;;-0.44;94.56;97957.81;5094329;28;20176;-61
2022/02/27 05:15:58;;;;;;;6.53;4.33;;;;;;;-0.44;94.03;97960.38;5076251;28;20225;-61
2022/02/27 05:18:23;;;;;;;6.27;4.20;;;;;;;-0.38;93.75;97961.63;5084218;28;20349;-61
2022/02/27 05:20:49;;;;;;;11.03;4.67;;;;;;;-0.37;93.87;97960.69;5073512;28;20185;-61
2022/02/27 05:23:14;;;;;;;10.17;4.67;;;;;;;-0.33;93.46;97960.28;5074138;28;20177;-61
2022/02/27 05:25:39;;;;;;;7.60;4.93;;;;;;;-0.36;93.62;97962.31;5074067;28;20184;-61
2022/02/27 05:28:05;;;;;;;6.20;3.73;;;;;;;-0.42;94.26;97964.47;5073540;28;20266;-61
2022/02/27 05:30:30;;;;;;;8.53;4.63;;;;;;;-0.35;93.18;97964.78;5073520;28;20264;-61
2022/02/27 05:32:56;;;;;;;5.60;4.43;;;;;;;-0.44;93.80;97966.34;5072347;28;20204;-61
2022/02/27 05:35:21;;;;;;;8.17;4.60;;;;;;;-0.46;94.13;97976.00;5073834;28;20185;-61
2022/02/27 05:37:47;;;;;;;6.17;4.30;;;;;;;-0.44;93.99;97966.34;5073339;28;20197;-61
2022/02/27 05:40:12;;;;;;;6.73;4.17;;;;;;;-0.46;93.51;97972.59;5071533;28;20173;-61
2022/02/27 05:42:38;;;;;;;10.63;4.70;;;;;;;-0.34;93.05;97971.56;5073331;28;20185;-61
2022/02/27 05:45:05;;;;;;;8.60;5.00;;;;;;;-0.40;94.04;97974.66;5073643;28;20398;-61
2022/02/27 05:47:30;;;;;;;9.33;4.80;;;;;;;-0.34;93.06;97978.47;5073167;28;20203;-61
2022/02/27 05:49:56;;;;;;;14.60;5.13;;;;;;;-0.35;93.02;97980.22;5072069;28;20181;-61
2022/02/27 05:52:22;;;;;;;9.20;4.63;;;;;;;-0.34;93.26;97988.78;5072013;28;20189;-61
2022/02/27 05:54:48;;;;;;;13.27;4.57;;;;;;;-0.43;93.40;97980.88;5072647;28;20200;-61
2022/02/27 05:57:13;;;;;;;12.67;4.83;;;;;;;-0.36;92.97;97985.50;5073092;28;20201;-61
2022/02/27 05:59:38;;;;;;;10.93;4.87;;;;;;;-0.44;92.89;97978.41;5072390;28;20193;-61
2022/02/27 06:02:04;;;;;;;8.37;4.50;;;;;;;-0.45;92.88;97989.69;5072822;28;20245;-61
2022/02/27 06:04:29;;;;;;;12.20;4.87;;;;;;;-0.44;93.38;97983.56;5072831;28;20189;-62
2022/02/27 06:06:55;;;;;;;11.90;4.27;;;;;;;-0.44;93.16;97991.28;5072679;28;20282;-61
2022/02/27 06:09:20;;;;;;;9.50;4.50;;;;;;;-0.47;93.63;97994.94;5072900;28;20292;-61
2022/02/27 06:11:45;;;;;;;6.57;3.97;;;;;;;-0.37;93.09;97999.31;5072825;28;20574;-61
2022/02/27 06:14:11;;;;;;;8.80;4.70;;;;;;;-0.49;93.11;98001.97;5072927;28;20283;-63
2022/02/27 06:16:36;;;;;;;6.53;4.37;;;;;;;-0.38;92.73;98011.38;5072534;28;20291;-63
2022/02/27 06:19:02;;;;;;;6.70;4.87;;;;;;;-0.31;92.57;98003.97;5072775;28;20697;-63
2022/02/27 06:21:27;;;;;;;7.13;4.07;;;;;;;-0.29;92.39;98007.22;5071251;28;20633;-64
2022/02/27 06:23:53;;;;;;;7.87;5.10;;;;;;;-0.25;92.04;98012.00;5072643;28;20172;-61
2022/02/27 06:26:18;;;;;;;9.47;4.40;;;;;;;-0.26;92.18;98007.78;5072101;28;20636;-62
2022/02/27 06:28:44;;;;;;;8.30;4.77;;;;;;;-0.21;91.61;98018.50;5072929;28;20173;-62
2022/02/27 06:31:10;;;;;;;15.50;5.10;;;;;;;-0.20;91.17;98014.19;5072076;28;20264;-62
2022/02/27 06:33:35;;;;;;;6.50;4.60;;;;;;;-0.22;91.83;98011.72;5072677;28;20264;-62
2022/02/27 06:36:01;;;;;;;6.70;4.43;;;;;;;-0.14;91.30;98011.91;5072351;28;20188;-62
2022/02/27 06:38:26;;;;;;;7.10;4.33;;;;;;;-0.18;91.40;98018.28;5072414;28;20209;-62
2022/02/27 06:40:51;;;;;;;8.97;5.03;;;;;;;-0.16;90.99;98018.94;5071705;28;20177;-62
2022/02/27 06:43:17;;;;;;;8.90;4.83;;;;;;;0.03;90.58;98017.41;5072516;28;20674;-61
2022/02/27 06:45:42;;;;;;;6.40;5.10;;;;;;;0.11;89.11;98020.97;5072813;28;20208;-62
2022/02/27 06:48:08;;;;;;;9.20;4.90;;;;;;;0.21;89.19;98023.56;5072145;28;20181;-63
2022/02/27 06:50:33;;;;;;;5.80;4.57;;;;;;;0.43;88.83;98023.34;5071964;28;20216;-61
2022/02/27 06:53:00;;;;;;;8.43;5.37;;;;;;;0.32;87.93;98019.13;5072016;28;20173;-62
2022/02/27 06:55:25;;;;;;;5.93;4.57;;;;;;;0.24;88.18;98020.72;5069973;28;20285;-61
2022/02/27 06:57:51;;;;;;;7.90;5.17;;;;;;;0.23;88.75;98025.06;5072087;28;20189;-61
2022/02/27 07:00:18;;;;;;;5.63;4.23;;;;;;;0.26;89.14;98027.38;5071957;28;20590;-62
2022/02/27 07:02:44;;;;;;;10.70;4.87;;;;;;;0.39;87.73;98033.09;5072282;28;20204;-62
2022/02/27 07:05:09;;;;;;;7.63;5.20;;;;;;;0.41;87.41;98035.56;5072161;28;20594;-61
2022/02/27 07:07:35;;;;;;;9.37;4.80;;;;;;;0.73;86.18;98030.16;5071960;28;20189;-62
2022/02/27 07:10:03;;;;;;;8.82;5.38;;;;;;;0.83;85.42;98031.84;5070456;28;20825;-62
2022/02/27 07:12:29;;;;;;;7.97;5.85;;;;;;;0.96;85.05;98034.13;5070362;28;20403;-62
2022/02/27 07:14:55;;;;;;;7.53;4.80;;;;;;;1.03;84.38;98032.66;5071650;28;20264;-62
2022/02/27 07:17:21;;;;;;;7.45;5.55;;;;;;;0.98;84.50;98037.41;5070376;28;20411;-62
2022/02/27 07:19:46;;;;;;;7.50;5.53;;;;;;;1.23;83.20;98039.41;5073071;28;20407;-62
2022/02/27 07:22:13;;;;;;;8.93;6.10;;;;;;;1.16;83.15;98040.94;5074616;28;20395;-62
2022/02/27 07:24:39;;;;;;;9.75;5.80;;;;;;;1.14;83.25;98040.25;5074923;28;20388;-62
2022/02/27 07:27:04;;;;;;;9.57;5.95;;;;;;;1.36;81.93;98046.06;5075445;28;20495;-62
2022/02/27 07:29:30;;;;;;;9.75;5.70;;;;;;;1.31;82.41;98056.81;5074871;28;20867;-62
2022/02/27 07:31:56;;;;;;;9.00;5.60;;;;;;;1.45;82.23;98053.00;5074810;28;20395;-62
2022/02/27 07:34:21;;;;;;;8.70;5.37;;;;;;;1.67;80.92;98045.75;5073196;28;20732;-63
2022/02/27 07:36:49;;;;;;;8.23;5.57;;;;;;;1.88;79.85;98050.75;5074442;28;20443;-62
2022/02/27 07:39:15;;;;;;;8.73;5.75;;;;;;;1.67;80.03;98057.88;5074790;28;20391;-62
2022/02/27 07:41:40;;;;;;;9.73;5.45;;;;;;;1.64;80.28;98055.56;5074993;28;20731;-62
2022/02/27 07:44:06;;;;;;;8.10;5.30;;;;;;;1.59;80.36;98050.00;5074399;28;20379;-62
2022/02/27 07:46:31;;;;;;;7.53;5.23;;;;;;;1.65;80.18;98046.84;5074055;28;20395;-63
2022/02/27 07:48:56;;;;;;;10.43;5.57;;;;;;;2.02;79.10;98052.84;5074588;28;20399;-66
2022/02/27 07:51:22;;;;;;;9.60;5.30;;;;;;;2.02;77.75;98058.03;5072973;28;20860;-64
2022/02/27 07:53:47;;;;;;;7.43;5.40;;;;;;;2.21;83.35;98061.50;5073870;28;20387;-65
2022/02/27 07:56:12;;;;;;;8.98;6.10;;;;;;;5.29;85.23;98060.00;5074523;28;20449;-64
2022/02/27 07:58:38;;;;;;;6.87;4.30;;;;;;;3.28;72.83;98074.47;5073962;28;20913;-64
2022/02/27 08:01:03;;;;;;;6.78;4.53;;;;;;;2.45;76.11;98072.16;5072965;28;20890;-64
2022/02/27 08:03:29;;;;;;;7.53;4.83;;;;;;;2.55;76.67;98077.28;5074557;28;20786;-64
2022/02/27 08:05:54;;;;;;;7.57;5.20;;;;;;;2.27;76.74;98074.69;5073849;28;20383;-64
2022/02/27 08:08:19;;;;;;;7.53;5.10;;;;;;;2.29;77.05;98071.94;5074206;28;20481;-63
2022/02/27 08:10:45;;;;;;;8.77;5.33;;;;;;;2.47;75.51;98076.22;5073564;28;20392;-64
2022/02/27 08:13:10;;;;;;;7.10;5.20;;;;;;;2.38;75.47;98081.44;5073918;28;20461;-65
2022/02/27 08:15:35;;;;;;;7.80;4.77;;;;;;;2.25;76.83;98076.59;5073500;28;20414;-63
2022/02/27 08:18:01;;;;;;;6.87;5.20;;;;;;;2.81;75.76;98085.97;5073684;28;20513;-63
2022/02/27 08:20:26;;;;;;;6.82;5.15;;;;;;;3.05;73.87;98080.22;5073543;28;20581;-64
2022/02/27 08:22:52;;;;;;;8.10;4.57;;;;;;;3.07;72.92;98086.06;5073959;28;20384;-63
2022/02/27 08:25:18;;;;;;;8.18;5.07;;;;;;;2.95;73.12;98087.25;5073982;28;20441;-63
2022/02/27 08:27:43;;;;;;;7.78;4.80;;;;;;;2.92;73.57;98078.00;5073831;28;20414;-65
2022/02/27 08:30:10;;;;;;;8.13;4.50;;;;;;;2.92;73.14;98085.75;5072200;28;20817;-64
2022/02/27 08:32:35;;;;;;;8.43;5.40;;;;;;;3.13;72.09;98086.28;5073336;28;20871;-64
2022/02/27 08:35:01;;;;;;;7.43;4.83;;;;;;;3.40;71.79;98087.19;5073737;28;20390;-64
2022/02/27 08:37:27;;;;;;;7.90;4.97;;;;;;;3.19;72.00;98085.69;5073669;28;20502;-64
2022/02/27 08:39:52;;;;;;;7.32;5.15;;;;;;;3.32;71.70;98085.34;5073242;28;20816;-62
2022/02/27 08:42:18;;;;;;;6.90;4.75;;;;;;;3.33;70.91;98080.03;5074054;28;20396;-64
2022/02/27 08:44:43;;;;;;;7.53;5.22;;;;;;;3.50;71.03;98075.78;5072844;28;20391;-64
2022/02/27 08:47:09;;;;;;;7.23;4.80;;;;;;;3.28;71.82;98076.25;5071961;28;20399;-64
2022/02/27 08:49:34;;;;;;;8.40;5.00;;;;;;;3.15;71.43;98086.16;5073625;28;20384;-64
2022/02/27 08:52:00;;;;;;;7.85;5.45;;;;;;;3.16;71.78;98075.66;5072979;28;20755;-62
2022/02/27 08:54:26;;;;;;;8.15;5.10;;;;;;;3.20;71.98;98078.75;5072751;28;20484;-64
2022/02/27 08:56:52;;;;;;;6.80;5.35;;;;;;;3.47;71.27;98076.06;5072680;28;20568;-62
2022/02/27 08:59:17;;;;;;;7.45;5.03;;;;;;;3.65;70.81;98076.88;5071482;28;20400;-64
2022/02/27 09:01:42;;;;;;;7.23;4.73;;;;;;;3.55;69.77;98086.50;5073177;28;20452;-66
2022/02/27 09:04:08;;;;;;;7.95;4.70;;;;;;;3.27;70.43;98075.44;5073120;28;20732;-62
2022/02/27 09:06:33;;;;;;;7.10;5.18;;;;;;;3.07;70.72;98078.28;5071900;28;20868;-64
2022/02/27 09:08:59;;;;;;;6.13;4.97;;;;;;;3.14;70.73;98079.34;5073119;28;20384;-62
2022/02/27 09:11:24;;;;;;;8.20;5.18;;;;;;;3.22;70.50;98088.00;5072207;28;20384;-63
2022/02/27 09:13:50;;;;;;;7.95;5.35;;;;;;;3.18;69.49;98076.31;5069691;28;20483;-63
2022/02/27 09:16:15;;;;;;;7.70;4.70;;;;;;;3.24;70.06;98083.47;5071372;28;20718;-64
2022/02/27 09:18:41;;;;;;;7.47;4.85;;;;;;;3.26;70.53;98088.53;5070442;28;20504;-62
2022/02/27 09:21:08;;;;;;;8.50;4.80;;;;;;;3.28;69.26;98084.84;5069668;28;20512;-62
2022/02/27 09:23:34;;;;;;;7.30;4.80;;;;;;;3.49;68.60;98088.88;5071991;28;20932;-61
2022/02/27 09:26:00;;;;;;;8.27;4.70;;;;;;;3.76;68.21;98068.03;5070695;28;20401;-63
2022/02/27 09:28:25;;;;;;;8.33;4.53;;;;;;;3.68;67.73;98076.53;5071587;28;20384;-62
2022/02/27 09:30:51;;;;;;;6.93;4.60;;;;;;;3.55;68.27;98068.38;5071210;28;20781;-63
2022/02/27 09:33:16;;;;;;;6.93;4.20;;;;;;;3.39;68.19;98070.00;5070591;28;20873;-64
2022/02/27 09:35:42;;;;;;;5.90;3.83;;;;;;;3.36;67.07;98068.53;5071499;28;20821;-63
2022/02/27 09:38:08;;;;;;;5.83;3.97;;;;;;;3.58;66.56;98057.69;5071253;28;20400;-62
2022/02/27 09:40:34;;;;;;;;;;;;;;;3.59;66.10;98061.91;5073212;28;20032;-62
2022/02/27 09:42:59;;;;;;;3.77;3.30;;;;;;;3.45;65.43;98046.91;5071861;28;20194;-62
2022/02/27 09:45:25;;;;;;;5.63;3.67;;;;;;;3.61;64.53;98046.22;5071106;28;20387;-62
2022/02/27 09:47:52;;;;;;;4.33;3.60;;;;;;;3.45;64.89;98067.66;5073210;28;20195;-62
2022/02/27 09:50:20;;;;;;;5.70;3.70;;;;;;;3.60;65.10;98057.53;5072062;28;20246;-64
2022/02/27 09:52:46;;;;;;;4.77;3.73;;;;;;;3.65;64.43;98069.09;5072701;28;20196;-63
2022/02/27 09:55:14;;;;;;;5.00;3.87;;;;;;;3.65;64.31;98063.91;5070811;28;20598;-63
2022/02/27 09:57:39;;;;;;;4.87;3.27;;;;;;;3.69;62.52;98067.81;5072789;28;20548;-63
2022/02/27 10:00:10;;;;;;;4.70;3.33;;;;;;;3.85;60.08;98061.91;5071930;28;20383;-62
2022/02/27 10:03:06;;;;;;;6.20;3.37;;;;;;;4.04;59.65;98066.09;5073316;28;20587;-63
2022/02/27 10:05:32;;;;;;;3.87;3.20;;;;;;;4.40;60.31;98057.16;5072817;28;20530;-63
2022/02/27 10:07:59;;;;;;;4.07;3.27;;;;;;;4.01;61.85;98061.22;5072740;28;20188;-63
2022/02/27 10:10:24;;;;;;;8.73;4.10;;;;;;;4.02;61.73;98074.00;5071689;28;20169;-62
2022/02/27 10:12:50;;;;;;;6.73;3.83;;;;;;;3.85;60.67;98076.66;5072650;28;20183;-63
2022/02/27 10:15:16;;;;;;;6.10;3.30;;;;;;;3.58;60.83;98054.28;5072305;28;20271;-62
2022/02/27 10:17:42;;;;;;;5.27;3.23;;;;;;;3.85;60.83;98069.69;5070987;28;20216;-63
2022/02/27 10:20:12;;;;;;;7.40;3.80;;;;;;;3.71;62.79;98063.28;5052622;28;20519;-62
2022/02/27 10:22:40;;;;;;;3.93;2.93;;;;;;;4.00;61.49;98064.78;5054149;28;20174;-62
2022/02/27 10:25:12;;;;;;;5.27;3.10;;;;;;;4.15;61.61;98064.03;5073072;28;20197;-61
2022/02/27 10:27:52;;;;;;;9.57;5.77;;;;;;;4.59;61.38;98059.53;5063548;28;20201;-62
2022/02/27 10:30:24;;;;;;;4.87;3.83;;;;;;;5.15;60.54;98052.81;5071754;28;20175;-63
2022/02/27 10:33:06;;;;;;;5.87;3.80;;;;;;;5.49;57.71;98050.06;5057610;28;20184;-62
2022/02/27 10:35:51;;;;;;;4.13;3.50;;;;;;;5.77;56.36;98058.34;5072539;28;20240;-62
2022/02/27 10:38:32;;;;;;;17.20;12.47;;;;;;;5.71;54.95;98049.41;5071841;28;20256;-63
2022/02/27 10:41:07;;;;;;;30.10;27.10;;;;;;;5.83;54.54;98047.28;5071888;28;20190;-62
2022/02/27 10:43:40;;;;;;;9.60;5.37;;;;;;;5.78;51.92;98039.16;5072113;28;20171;-62
2022/02/27 10:46:06;;;;;;;13.10;11.77;;;;;;;5.52;52.52;98052.34;5065629;28;20177;-64
2022/02/27 10:48:32;;;;;;;6.27;4.70;;;;;;;5.61;52.39;98040.97;5070450;28;20323;-63
2022/02/27 10:51:05;;;;;;;21.67;19.37;;;;;;;5.57;52.89;98042.28;5071318;28;20185;-63
2022/02/27 10:53:39;;;;;;;106.87;95.63;;;;;;;5.85;50.93;98043.50;5069726;28;20270;-62
2022/02/27 10:56:09;;;;;;;14.37;11.20;;;;;;;6.13;50.79;98030.94;5071270;28;20193;-63
2022/02/27 10:58:43;;;;;;;4.90;3.53;;;;;;;6.21;49.44;98033.53;5071440;28;20201;-63
2022/02/27 11:01:19;;;;;;;138.57;100.23;;;;;;;6.56;48.86;98034.06;5072206;28;20201;-65
2022/02/27 11:03:47;;;;;;;5.53;2.63;;;;;;;6.69;45.91;98032.50;5071767;28;20618;-63
2022/02/27 11:06:13;;;;;;;4.03;2.20;;;;;;;5.44;48.18;98024.56;5071123;28;20195;-63
2022/02/27 11:08:40;;;;;;;2.53;2.33;;;;;;;4.85;50.20;98024.84;5072272;28;20196;-62
2022/02/27 11:11:07;;;;;;;3.00;2.53;;;;;;;5.08;49.80;98028.44;5070916;28;20200;-62
2022/02/27 11:13:33;;;;;;;2.60;2.40;;;;;;;5.30;49.39;98025.19;5071561;28;20260;-62
2022/02/27 11:15:58;;;;;;;6.47;3.10;;;;;;;6.53;77.32;98011.75;5070303;28;20264;-63
2022/02/27 11:18:24;;;;;;;2.67;2.47;;;;;;;5.93;47.49;98021.91;5072003;28;20217;-62
2022/02/27 11:20:50;;;;;;;3.73;2.47;;;;;;;4.91;48.67;98016.41;5071470;28;20200;-62
2022/02/27 11:23:16;;;;;;;3.50;2.13;;;;;;;4.93;49.54;98014.47;5063016;28;20234;-63
2022/02/27 11:25:42;;;;;;;2.97;2.30;;;;;;;4.96;48.10;98004.56;5068966;28;20588;-64
2022/02/27 11:28:10;;;;;;;2.93;2.40;;;;;;;5.06;48.83;98008.81;5068928;28;20185;-62
2022/02/27 11:30:39;;;;;;;3.67;2.37;;;;;;;5.20;48.54;98003.78;5071405;28;20264;-61
2022/02/27 11:33:07;;;;;;;3.17;2.50;;;;;;;5.00;48.89;98010.25;5070326;28;20189;-61
2022/02/27 11:35:40;;;;;;;2.23;2.03;;;;;;;4.83;48.56;98001.66;5069869;28;20338;-62